Time;durP1;ratioP1;P1;durP2;ratioP2;P2;SDS_P1;SDS_P2;PMS_P1;PMS_P2;Temp;Humidity;BMP_temperature;BMP_pressure;BME280_temperature;BME280_humidity;BME280_pressure;Samples;Min_cycle;Max_cycle;Signal;HPM_P1;HPM_P2
2023/06/10 00:03:25;;;;;;;14.52;10.98;;;;;;;19.48;88.52;100344.34;8322801;28;20455;-61
2023/06/10 00:07:25;;;;;;;12.55;11.05;;;;;;;19.27;90.32;100354.31;8323118;28;20111;-61
2023/06/10 00:11:26;;;;;;;12.43;10.52;;;;;;;19.26;90.75;100347.16;8321160;28;20041;-61
2023/06/10 00:15:26;;;;;;;13.70;10.68;;;;;;;19.44;90.37;100350.22;8322637;28;20034;-61
2023/06/10 00:19:29;;;;;;;15.85;10.45;;;;;;;19.38;90.95;100342.81;8322481;28;20033;-61
2023/06/10 00:23:30;;;;;;;13.80;10.80;;;;;;;19.15;92.54;100350.41;8338822;28;20560;-61
2023/06/10 00:27:34;;;;;;;12.45;11.20;;;;;;;19.03;94.20;100346.50;8327743;28;20040;-61
2023/06/10 00:31:36;;;;;;;15.38;11.32;;;;;;;18.77;95.56;100348.19;8322483;28;20032;-61
2023/06/10 00:35:37;;;;;;;12.45;11.07;;;;;;;18.97;93.37;100354.69;8321902;28;20041;-61
2023/06/10 00:39:38;;;;;;;13.77;11.10;;;;;;;18.74;95.47;100352.19;8322745;28;20507;-61
2023/06/10 00:43:38;;;;;;;17.50;11.38;;;;;;;18.65;95.67;100353.38;8322232;28;20052;-61
2023/06/10 00:47:39;;;;;;;15.43;11.15;;;;;;;18.79;93.55;100349.69;8322207;28;20393;-61
2023/06/10 00:51:40;;;;;;;13.23;10.88;;;;;;;18.77;94.20;100359.16;8322200;28;20253;-59
2023/06/10 00:55:41;;;;;;;13.90;12.07;;;;;;;18.52;95.87;100357.84;8322262;28;20410;-60
2023/06/10 00:59:47;;;;;;;18.25;11.65;;;;;;;18.72;94.01;100358.88;8321018;28;20037;-60
2023/06/10 01:03:48;;;;;;;15.95;11.82;;;;;;;18.75;94.39;100359.34;8289401;28;20042;-59
2023/06/10 01:08:00;;;;;;;17.52;11.77;;;;;;;18.65;94.55;100353.38;8317625;28;20042;-59
2023/06/10 01:12:08;;;;;;;15.18;11.23;;;;;;;18.94;92.56;100358.66;8327519;28;20034;-59
2023/06/10 01:16:10;;;;;;;13.65;10.98;;;;;;;19.16;90.57;100351.25;8327653;28;20034;-60
2023/06/10 01:20:12;;;;;;;14.93;12.07;;;;;;;18.95;91.92;100354.91;8327439;28;20518;-59
2023/06/10 01:24:13;;;;;;;14.43;10.68;;;;;;;18.78;92.87;100353.47;8326452;28;20407;-61
2023/06/10 01:28:23;;;;;;;16.17;12.15;;;;;;;18.56;95.14;100351.81;8326500;28;20120;-61
2023/06/10 01:32:37;;;;;;;12.82;11.32;;;;;;;18.61;94.53;100346.59;8316171;28;20043;-61
2023/06/10 01:36:41;;;;;;;14.20;11.48;;;;;;;18.65;95.34;100347.03;8326713;28;20041;-61
2023/06/10 01:40:42;;;;;;;15.82;12.00;;;;;;;18.37;96.84;100354.34;8346699;28;20109;-61
2023/06/10 01:44:43;;;;;;;13.48;12.07;;;;;;;18.26;97.31;100357.53;8329567;28;20403;-61
2023/06/10 01:48:43;;;;;;;16.50;12.18;;;;;;;17.97;99.87;100350.28;8326677;28;20092;-61
2023/06/10 01:52:45;;;;;;;14.10;12.60;;;;;;;17.79;100.00;100360.78;8325264;28;20061;-61
2023/06/10 01:56:47;;;;;;;19.33;13.02;;;;;;;17.89;99.79;100355.00;8326232;28;20112;-61
2023/06/10 02:00:47;;;;;;;15.57;12.20;;;;;;;18.01;98.95;100365.25;8326490;28;20037;-61
2023/06/10 02:04:48;;;;;;;13.50;12.07;;;;;;;17.78;100.00;100364.53;8325931;28;20116;-61
2023/06/10 02:08:48;;;;;;;14.68;12.52;;;;;;;17.77;100.00;100367.47;8325930;28;20037;-61
2023/06/10 02:12:49;;;;;;;17.98;13.50;;;;;;;17.93;100.00;100361.78;8323478;28;20044;-61
2023/06/10 02:16:51;;;;;;;17.55;13.35;;;;;;;17.95;99.23;100366.03;8325681;28;20033;-61
2023/06/10 02:20:51;;;;;;;14.75;12.45;;;;;;;17.93;98.91;100370.84;8324379;28;20048;-61
2023/06/10 02:24:51;;;;;;;20.95;14.45;;;;;;;17.88;98.95;100378.78;8325346;28;20041;-60
2023/06/10 02:28:52;;;;;;;17.45;14.15;;;;;;;17.99;96.89;100364.59;8325910;28;20558;-60
2023/06/10 02:32:53;;;;;;;19.58;13.25;;;;;;;18.05;97.47;100374.78;8325309;28;20033;-61
2023/06/10 02:36:54;;;;;;;16.15;13.00;;;;;;;17.47;100.00;100377.56;8324726;28;20037;-61
2023/06/10 02:40:56;;;;;;;16.58;14.20;;;;;;;17.20;100.00;100370.00;8325788;28;20033;-61
2023/06/10 02:44:57;;;;;;;21.83;14.27;;;;;;;17.37;100.00;100383.28;8324792;28;20045;-61
2023/06/10 02:49:08;;;;;;;18.15;14.40;;;;;;;17.15;100.00;100377.88;8326151;28;20053;-59
2023/06/10 02:53:10;;;;;;;17.40;14.73;;;;;;;17.15;100.00;100372.44;8325112;28;20033;-59
2023/06/10 02:57:14;;;;;;;17.25;14.77;;;;;;;17.08;100.00;100366.84;8324767;28;20045;-60
2023/06/10 03:01:15;;;;;;;18.92;14.90;;;;;;;17.03;100.00;100369.31;8324705;28;20053;-60
2023/06/10 03:05:27;;;;;;;20.13;15.50;;;;;;;17.17;100.00;100375.84;8322862;28;20033;-60
2023/06/10 03:09:30;;;;;;;20.45;14.90;;;;;;;17.00;100.00;100385.19;8324807;28;20129;-60
2023/06/10 03:13:32;;;;;;;20.48;15.55;;;;;;;16.95;100.00;100377.56;8324675;28;20175;-60
2023/06/10 03:17:33;;;;;;;18.17;14.82;;;;;;;16.98;100.00;100384.53;8324138;28;20112;-60
2023/06/10 03:21:37;;;;;;;20.15;15.88;;;;;;;16.89;100.00;100388.38;8324124;28;20045;-60
2023/06/10 03:25:39;;;;;;;18.30;14.32;;;;;;;17.08;100.00;100385.13;8323945;28;20041;-61
2023/06/10 03:29:40;;;;;;;21.65;14.98;;;;;;;17.17;100.00;100386.75;8324072;28;20072;-60
2023/06/10 03:33:42;;;;;;;17.83;15.00;;;;;;;17.01;100.00;100395.09;8323910;28;20089;-60
2023/06/10 03:37:43;;;;;;;19.50;15.80;;;;;;;17.00;100.00;100396.13;8323530;28;20500;-60
2023/06/10 03:41:44;;;;;;;22.15;16.08;;;;;;;17.28;100.00;100394.47;8323965;28;20458;-60
2023/06/10 03:45:45;;;;;;;17.80;14.35;;;;;;;17.14;100.00;100404.34;8323261;28;20044;-60
2023/06/10 03:49:46;;;;;;;19.25;14.70;;;;;;;17.13;100.00;100396.34;8322345;28;20079;-64
2023/06/10 03:53:47;;;;;;;19.42;15.07;;;;;;;16.98;100.00;100398.19;8323629;28;20458;-64
2023/06/10 03:57:48;;;;;;;19.48;15.38;;;;;;;16.98;100.00;100409.09;8323083;28;20038;-64
2023/06/10 04:01:49;;;;;;;17.00;14.82;;;;;;;17.09;100.00;100403.22;8323537;28;20044;-64
2023/06/10 04:05:50;;;;;;;18.95;15.48;;;;;;;17.25;100.00;100400.31;8323083;28;20037;-64
2023/06/10 04:09:50;;;;;;;20.35;15.13;;;;;;;17.54;100.00;100406.69;8323087;28;20041;-64
2023/06/10 04:13:51;;;;;;;17.08;13.85;;;;;;;17.86;98.16;100405.47;8329528;28;20032;-64
2023/06/10 04:17:52;;;;;;;17.75;14.05;;;;;;;18.13;98.37;100412.13;8338416;28;20035;-64
2023/06/10 04:21:57;;;;;;;17.65;13.65;;;;;;;18.11;98.28;100419.69;8321537;28;20041;-64
2023/06/10 04:25:59;;;;;;;20.27;15.15;;;;;;;18.22;98.11;100417.31;8323187;28;20034;-64
2023/06/10 04:30:00;;;;;;;18.98;14.95;;;;;;;18.42;97.79;100420.31;8323193;28;20041;-64
2023/06/10 04:34:00;;;;;;;19.42;14.43;;;;;;;18.51;94.29;100422.72;8323093;28;20068;-60
2023/06/10 04:38:03;;;;;;;16.40;13.75;;;;;;;18.72;93.23;100430.94;8322643;28;20464;-60
2023/06/10 04:42:05;;;;;;;18.23;14.48;;;;;;;18.89;92.67;100432.41;8323081;28;20052;-60
2023/06/10 04:46:06;;;;;;;16.98;14.40;;;;;;;19.05;92.32;100432.13;8326916;28;20037;-60
2023/06/10 04:50:07;;;;;;;19.20;13.55;;;;;;;19.24;91.80;100420.47;8328846;28;20039;-58
2023/06/10 04:54:08;;;;;;;18.25;13.82;;;;;;;19.44;90.10;100418.78;8327518;28;20526;-58
2023/06/10 04:58:08;;;;;;;16.40;13.68;;;;;;;19.72;91.45;100417.88;8328747;28;20041;-60
2023/06/10 05:02:08;;;;;;;18.00;14.38;;;;;;;19.61;91.81;100421.22;8319665;28;20045;-60
2023/06/10 05:06:09;;;;;;;20.00;13.80;;;;;;;19.98;91.05;100418.06;8325223;28;20033;-58
2023/06/10 05:10:11;;;;;;;18.58;13.73;;;;;;;20.23;88.94;100416.50;8331528;28;20033;-58
2023/06/10 05:14:12;;;;;;;18.30;13.73;;;;;;;20.38;87.24;100419.94;8304837;28;20066;-59
2023/06/10 05:18:13;;;;;;;18.92;13.45;;;;;;;20.78;86.85;100422.59;8293894;28;20041;-60
2023/06/10 05:22:16;;;;;;;21.13;14.82;;;;;;;21.01;80.40;100422.22;8310192;28;20056;-60
2023/06/10 05:26:17;;;;;;;17.52;13.32;;;;;;;21.13;84.59;100426.03;8339633;28;20411;-60
2023/06/10 05:30:18;;;;;;;17.15;14.48;;;;;;;21.08;87.16;100423.09;8326544;28;20404;-60
2023/06/10 05:34:19;;;;;;;16.50;14.02;;;;;;;21.20;84.56;100421.41;8315622;28;20120;-59
2023/06/10 05:38:19;;;;;;;19.00;14.23;;;;;;;21.46;83.05;100424.13;8300298;28;20053;-58
2023/06/10 05:42:20;;;;;;;18.55;14.27;;;;;;;21.80;77.88;100423.88;8308266;28;20037;-58
2023/06/10 05:46:20;;;;;;;18.42;13.55;;;;;;;22.04;77.62;100431.44;8294883;28;20033;-58
2023/06/10 05:50:21;;;;;;;16.63;14.18;;;;;;;22.22;79.53;100431.59;8308893;28;20510;-58
2023/06/10 05:54:21;;;;;;;19.17;13.18;;;;;;;22.53;76.28;100437.22;8325238;28;20069;-58
2023/06/10 05:58:21;;;;;;;20.60;12.82;;;;;;;22.77;73.46;100444.72;8341583;28;20044;-59
2023/06/10 06:02:22;;;;;;;13.13;11.80;;;;;;;22.89;72.46;100437.44;8325506;28;20111;-59
2023/06/10 06:06:23;;;;;;;16.98;12.38;;;;;;;23.40;71.98;100439.19;8291062;28;20049;-59
2023/06/10 06:10:24;;;;;;;19.30;13.32;;;;;;;23.55;72.60;100436.94;8310857;28;20038;-59
2023/06/10 06:14:24;;;;;;;18.42;13.40;;;;;;;23.75;70.05;100448.66;8335853;28;20076;-59
2023/06/10 06:18:25;;;;;;;17.25;12.25;;;;;;;23.81;71.40;100439.41;8316508;28;20557;-59
2023/06/10 06:22:25;;;;;;;18.15;12.68;;;;;;;23.97;70.72;100442.47;8322125;28;20065;-59
2023/06/10 06:26:26;;;;;;;13.90;12.27;;;;;;;24.24;71.19;100443.84;8322352;28;20415;-60
2023/06/10 06:30:27;;;;;;;16.30;11.35;;;;;;;24.76;67.38;100445.13;8320305;28;20436;-60
2023/06/10 06:34:28;;;;;;;13.23;11.48;;;;;;;24.88;70.49;100446.00;8321316;28;20037;-62
2023/06/10 06:38:28;;;;;;;19.90;12.52;;;;;;;24.97;69.14;100450.97;8334009;28;20037;-63
2023/06/10 06:42:29;;;;;;;13.95;12.38;;;;;;;25.20;66.51;100450.22;8320102;28;20648;-62
2023/06/10 06:46:45;;;;;;;17.30;12.40;;;;;;;25.21;65.48;100457.44;8321805;28;20044;-59
2023/06/10 06:50:46;;;;;;;19.67;12.05;;;;;;;25.51;66.91;100452.69;8322793;28;20495;-58
2023/06/10 06:54:47;;;;;;;19.80;12.90;;;;;;;25.57;66.13;100457.28;8310218;28;20036;-59
2023/06/10 06:58:47;;;;;;;18.80;12.38;;;;;;;25.83;65.04;100462.34;8310042;28;20037;-59
2023/06/10 07:02:49;;;;;;;15.20;11.82;;;;;;;25.83;66.08;100467.06;8322630;28;20037;-59
2023/06/10 07:06:50;;;;;;;13.55;10.65;;;;;;;25.83;64.35;100462.34;8315091;28;20136;-59
2023/06/10 07:10:50;;;;;;;17.98;9.43;;;;;;;26.17;61.78;100464.28;8313860;28;20033;-59
2023/06/10 07:14:51;;;;;;;12.45;9.85;;;;;;;26.07;60.38;100464.06;8313637;28;20076;-60
2023/06/10 07:18:52;;;;;;;13.48;9.40;;;;;;;26.49;60.83;100462.78;8307488;28;20095;-63
2023/06/10 07:22:53;;;;;;;13.10;8.75;;;;;;;26.62;57.64;100459.75;8306037;28;20076;-62
2023/06/10 07:26:54;;;;;;;12.02;8.77;;;;;;;26.74;59.79;100466.09;8321387;28;20053;-60
2023/06/10 07:30:54;;;;;;;11.32;8.40;;;;;;;26.99;59.14;100467.69;8309270;28;20069;-60
2023/06/10 07:34:55;;;;;;;14.65;8.75;;;;;;;27.07;57.48;100461.75;8316387;28;20045;-60
2023/06/10 07:38:55;;;;;;;13.93;9.60;;;;;;;26.91;58.99;100460.59;8301092;28;20517;-60
2023/06/10 07:42:56;;;;;;;12.47;8.33;;;;;;;27.04;57.80;100459.47;8306741;28;20037;-60
2023/06/10 07:46:57;;;;;;;13.18;8.30;;;;;;;27.19;57.35;100459.72;8316484;28;20662;-60
2023/06/10 07:50:58;;;;;;;12.95;7.88;;;;;;;27.79;56.43;100446.91;8305893;28;20116;-60
2023/06/10 07:54:58;;;;;;;10.65;7.13;;;;;;;27.87;56.83;100454.88;8317817;28;20041;-60
2023/06/10 07:58:59;;;;;;;12.30;8.43;;;;;;;27.71;55.96;100450.97;8308677;28;20046;-60
2023/06/10 08:02:59;;;;;;;11.90;6.90;;;;;;;27.88;55.52;100460.16;8311917;28;20826;-60
2023/06/10 08:06:59;;;;;;;9.38;6.65;;;;;;;28.19;55.12;100455.88;8317262;28;20276;-60
2023/06/10 08:11:00;;;;;;;11.65;6.80;;;;;;;28.08;53.21;100456.81;8316139;28;20091;-60
2023/06/10 08:15:01;;;;;;;8.57;5.82;;;;;;;28.26;53.85;100459.31;8304212;28;20041;-60
2023/06/10 08:19:02;;;;;;;7.60;6.00;;;;;;;28.18;51.70;100462.56;8320490;28;20054;-60
2023/06/10 08:23:02;;;;;;;9.20;6.30;;;;;;;28.46;51.34;100454.06;8324372;28;20052;-60
2023/06/10 08:27:03;;;;;;;7.13;6.10;;;;;;;28.31;51.03;100448.25;8315597;28;20471;-60
2023/06/10 08:31:04;;;;;;;8.60;6.22;;;;;;;28.33;50.57;100457.19;8307615;28;20183;-60
2023/06/10 08:35:04;;;;;;;10.20;5.83;;;;;;;28.52;51.44;100455.81;8321859;28;20033;-60
2023/06/10 08:39:05;;;;;;;10.65;6.65;;;;;;;28.81;51.46;100446.13;8321080;28;20354;-60
2023/06/10 08:43:07;;;;;;;13.38;6.97;;;;;;;28.65;52.28;100455.41;8323034;28;20046;-60
2023/06/10 08:47:16;;;;;;;7.53;6.45;;;;;;;28.98;53.60;100457.16;8323706;28;20041;-60
2023/06/10 08:51:17;;;;;;;13.80;6.95;;;;;;;29.38;51.34;100458.47;8324174;28;20033;-60
2023/06/10 08:55:25;;;;;;;12.70;7.95;;;;;;;29.38;51.67;100452.88;8323682;28;20412;-60
2023/06/10 08:59:26;;;;;;;12.23;6.88;;;;;;;29.39;51.46;100459.31;8310793;28;20041;-60
2023/06/10 09:03:28;;;;;;;11.23;6.45;;;;;;;29.27;52.45;100455.84;8322497;28;20060;-60
2023/06/10 09:07:34;;;;;;;11.05;7.55;;;;;;;29.52;50.66;100454.09;8323394;28;20545;-60
2023/06/10 09:11:34;;;;;;;10.15;6.63;;;;;;;29.58;51.40;100455.84;8314314;28;20415;-60
2023/06/10 09:15:35;;;;;;;7.50;6.55;;;;;;;29.91;50.51;100455.56;8319915;28;20049;-63
2023/06/10 09:19:37;;;;;;;9.18;7.18;;;;;;;29.80;50.94;100451.03;8319793;28;20124;-63
2023/06/10 09:23:37;;;;;;;9.77;6.85;;;;;;;29.77;51.19;100451.59;8314461;28;20126;-63
2023/06/10 09:27:54;;;;;;;13.68;10.13;;;;;;;30.12;51.22;100443.44;8312981;28;20095;-61
2023/06/10 09:31:55;;;;;;;10.13;6.97;;;;;;;30.06;50.03;100450.09;8312394;28;20160;-61
2023/06/10 09:36:00;;;;;;;10.45;6.85;;;;;;;30.13;50.84;100447.91;8307050;28;20041;-61
2023/06/10 09:40:05;;;;;;;25.75;18.13;;;;;;;29.97;49.78;100443.34;8320926;28;20432;-57
2023/06/10 09:44:21;;;;;;;52.85;37.38;;;;;;;30.11;51.15;100433.41;8317671;28;20128;-58
2023/06/10 09:48:23;;;;;;;13.15;8.88;;;;;;;30.52;51.81;100439.22;8322036;28;20029;-58
2023/06/10 09:52:25;;;;;;;10.15;6.72;;;;;;;30.06;49.19;100436.16;8321625;28;20040;-58
2023/06/10 09:56:35;;;;;;;9.32;6.25;;;;;;;30.33;49.59;100439.69;8319985;28;20131;-59
2023/06/10 10:00:36;;;;;;;9.20;6.32;;;;;;;31.18;49.19;100446.69;8320151;28;20049;-58
2023/06/10 10:04:36;;;;;;;10.32;8.82;;;;;;;32.51;47.64;100440.47;8297956;28;20041;-58
2023/06/10 10:08:37;;;;;;;8.38;6.57;;;;;;;33.53;44.40;100448.84;8320697;28;20064;-58
2023/06/10 10:12:39;;;;;;;8.13;6.72;;;;;;;33.93;42.65;100442.06;8334908;28;20038;-58
2023/06/10 10:16:41;;;;;;;9.90;6.93;;;;;;;35.37;42.59;100446.19;8325584;28;20070;-59
2023/06/10 10:20:49;;;;;;;9.27;7.05;;;;;;;35.68;41.72;100458.59;8330453;28;20049;-59
2023/06/10 10:24:53;;;;;;;13.38;11.02;;;;;;;35.70;41.42;100442.22;8317473;28;20119;-60
2023/06/10 10:29:19;;;;;;;7.47;5.88;;;;;;;36.58;40.81;100445.63;8327123;28;20038;-60
2023/06/10 10:33:27;;;;;;;9.02;6.65;;;;;;;36.10;40.94;100444.31;8336487;28;20029;-60
2023/06/10 10:37:28;;;;;;;6.55;5.97;;;;;;;36.35;40.02;100432.63;8288175;28;20088;-62
2023/06/10 10:41:31;;;;;;;8.70;6.13;;;;;;;36.38;38.31;100434.81;8290581;28;20196;-61
2023/06/10 10:45:33;;;;;;;6.25;5.60;;;;;;;36.52;40.53;100430.00;8319492;28;20056;-60
2023/06/10 10:49:37;;;;;;;6.60;5.97;;;;;;;36.19;39.86;100433.19;8320639;28;20050;-62
2023/06/10 10:53:38;;;;;;;9.20;6.63;;;;;;;36.77;39.70;100418.19;8303447;28;20041;-61
2023/06/10 10:57:39;;;;;;;11.82;6.30;;;;;;;36.25;37.79;100424.31;8301100;28;20103;-58
2023/06/10 11:01:42;;;;;;;10.65;5.80;;;;;;;36.14;38.82;100420.06;8279175;28;20681;-58
2023/06/10 11:05:48;;;;;;;6.60;5.90;;;;;;;37.07;38.70;100411.84;8302735;28;20045;-58
2023/06/10 11:10:10;;;;;;;15.65;10.23;;;;;;;36.60;37.82;100409.53;8318367;28;20052;-58
2023/06/10 11:14:10;;;;;;;8.60;6.60;;;;;;;36.43;38.50;100409.31;8294155;28;20053;-61
2023/06/10 11:18:29;;;;;;;7.18;6.47;;;;;;;36.70;37.93;100398.03;8286982;28;20045;-59
2023/06/10 11:22:29;;;;;;;14.70;7.63;;;;;;;37.07;38.55;100396.91;8318646;28;20165;-60
2023/06/10 11:26:32;;;;;;;6.70;5.95;;;;;;;36.84;37.45;100400.84;8307064;28;20045;-60
2023/06/10 11:30:34;;;;;;;5.50;5.00;;;;;;;37.17;37.33;100394.69;8315559;28;20075;-60
2023/06/10 11:34:35;;;;;;;7.38;5.78;;;;;;;38.00;36.54;100385.50;8332513;28;20491;-60
2023/06/10 11:38:36;;;;;;;6.85;6.03;;;;;;;38.65;35.05;100382.78;8325367;28;20506;-60
2023/06/10 11:42:40;;;;;;;7.70;6.07;;;;;;;37.63;36.88;100382.28;8303718;28;20554;-60
2023/06/10 11:46:44;;;;;;;9.27;5.65;;;;;;;36.56;37.74;100383.13;8318412;28;20424;-60
2023/06/10 11:50:45;;;;;;;8.75;5.63;;;;;;;36.90;37.93;100374.22;8304055;28;20038;-60
2023/06/10 11:54:53;;;;;;;8.43;5.90;;;;;;;37.25;35.64;100371.41;8304362;28;20045;-59
2023/06/10 11:58:57;;;;;;;6.30;5.80;;;;;;;37.94;36.05;100360.56;8306312;28;20575;-60
2023/06/10 12:02:57;;;;;;;7.35;5.03;;;;;;;36.51;37.28;100369.16;8325430;28;20134;-60
2023/06/10 12:06:59;;;;;;;7.72;6.38;;;;;;;36.16;38.57;100352.16;8317225;28;20782;-61
2023/06/10 12:11:02;;;;;;;5.90;5.20;;;;;;;35.37;37.48;100350.53;8317714;28;20517;-61
2023/06/10 12:15:04;;;;;;;6.88;5.55;;;;;;;33.76;38.75;100347.06;8312149;28;20037;-60
2023/06/10 12:19:06;;;;;;;5.90;5.30;;;;;;;32.71;41.58;100339.53;8301128;28;20474;-60
2023/06/10 12:23:10;;;;;;;7.57;5.47;;;;;;;32.57;40.62;100344.09;8311607;28;20234;-60
2023/06/10 12:27:12;;;;;;;5.68;5.05;;;;;;;32.37;39.04;100338.59;8312476;28;20095;-60
2023/06/10 12:31:12;;;;;;;6.07;5.10;;;;;;;32.39;38.82;100339.16;8317697;28;20099;-60
2023/06/10 12:35:17;;;;;;;9.50;5.28;;;;;;;32.34;39.95;100333.59;8308252;28;20397;-60
2023/06/10 12:39:18;;;;;;;8.32;4.65;;;;;;;32.02;40.55;100338.75;8315470;28;20503;-60
2023/06/10 12:43:21;;;;;;;5.15;4.65;;;;;;;31.81;40.96;100323.13;8328049;28;20403;-60
2023/06/10 12:47:31;;;;;;;5.80;5.20;;;;;;;31.73;41.63;100337.66;8316972;28;20470;-60
2023/06/10 12:51:32;;;;;;;6.10;5.50;;;;;;;32.11;41.21;100328.63;8316708;28;20041;-60
2023/06/10 12:55:33;;;;;;;6.40;4.95;;;;;;;32.39;42.54;100327.13;8328764;28;20048;-60
2023/06/10 12:59:34;;;;;;;8.77;5.20;;;;;;;32.18;42.30;100326.34;8319772;28;20095;-61
2023/06/10 13:03:35;;;;;;;9.30;5.68;;;;;;;32.14;42.38;100333.66;8302238;28;20037;-60
2023/06/10 13:07:35;;;;;;;8.10;5.13;;;;;;;32.21;41.45;100323.00;8321931;28;20064;-60
2023/06/10 13:11:36;;;;;;;6.18;4.88;;;;;;;32.01;40.16;100325.84;8318914;28;20068;-60
2023/06/10 13:15:37;;;;;;;5.90;4.68;;;;;;;32.27;39.49;100316.25;8310083;28;20125;-60
2023/06/10 13:19:37;;;;;;;8.55;4.93;;;;;;;32.21;39.64;100323.81;8306385;28;20042;-60
2023/06/10 13:23:39;;;;;;;7.22;5.03;;;;;;;32.18;38.61;100306.78;8308721;28;20094;-60
2023/06/10 13:27:41;;;;;;;7.15;4.72;;;;;;;32.30;39.90;100314.81;8319790;28;20140;-60
2023/06/10 13:31:42;;;;;;;5.45;4.38;;;;;;;32.04;40.05;100302.91;8338275;28;21052;-60
2023/06/10 13:35:43;;;;;;;6.53;4.88;;;;;;;32.19;39.84;100300.88;8315614;28;20447;-59
2023/06/10 13:39:43;;;;;;;7.78;5.32;;;;;;;31.78;39.73;100306.91;8292470;28;20120;-59
2023/06/10 13:43:44;;;;;;;8.27;4.90;;;;;;;31.59;41.04;100303.03;8303093;28;20274;-61
2023/06/10 13:47:44;;;;;;;7.28;5.15;;;;;;;31.34;41.57;100300.28;8317898;28;20033;-60
2023/06/10 13:51:45;;;;;;;5.25;4.53;;;;;;;31.52;42.25;100294.94;8313394;28;20041;-60
2023/06/10 13:55:45;;;;;;;8.07;5.03;;;;;;;31.57;40.61;100294.09;8317717;28;20460;-60
2023/06/10 13:59:46;;;;;;;8.13;4.87;;;;;;;31.58;39.96;100287.38;8318992;28;20128;-59
2023/06/10 14:03:46;;;;;;;5.50;4.45;;;;;;;31.34;39.67;100295.53;8309641;28;20311;-59
2023/06/10 14:07:47;;;;;;;5.38;4.80;;;;;;;31.43;39.97;100287.41;8321200;28;20104;-59
2023/06/10 14:11:47;;;;;;;5.65;4.20;;;;;;;31.76;39.72;100286.75;8320868;28;20034;-59
2023/06/10 14:15:47;;;;;;;9.10;4.45;;;;;;;31.99;39.56;100281.38;8302921;28;20041;-60
2023/06/10 14:19:48;;;;;;;5.15;4.13;;;;;;;31.98;37.20;100273.28;8316886;28;20041;-62
2023/06/10 14:23:50;;;;;;;6.32;4.32;;;;;;;32.09;37.99;100269.31;8318749;28;20559;-61
2023/06/10 14:27:50;;;;;;;5.88;3.95;;;;;;;32.04;38.30;100272.97;8319857;28;20083;-61
2023/06/10 14:31:51;;;;;;;8.77;5.00;;;;;;;31.96;38.87;100275.53;8320297;28;20042;-61
2023/06/10 14:35:51;;;;;;;5.95;4.30;;;;;;;31.93;38.65;100260.16;8319426;28;20572;-61
2023/06/10 14:39:52;;;;;;;5.10;4.40;;;;;;;31.96;38.36;100259.56;8315381;28;20057;-61
2023/06/10 14:43:52;;;;;;;4.70;4.20;;;;;;;31.98;39.05;100262.09;8319450;28;20774;-62
2023/06/10 14:47:53;;;;;;;8.50;4.72;;;;;;;32.00;39.30;100263.50;8320043;28;20199;-62
2023/06/10 14:51:53;;;;;;;4.70;4.17;;;;;;;31.67;41.08;100277.28;8318706;28;20200;-63
2023/06/10 14:55:54;;;;;;;5.03;4.53;;;;;;;31.14;41.39;100273.19;8318958;28;20294;-63
2023/06/10 14:59:55;;;;;;;9.30;4.57;;;;;;;30.66;42.70;100270.06;8320245;28;20466;-63
2023/06/10 15:03:56;;;;;;;5.82;4.32;;;;;;;30.49;42.50;100263.94;8302494;28;20041;-63
2023/06/10 15:07:56;;;;;;;4.70;4.03;;;;;;;30.60;41.06;100255.28;8317516;28;20119;-63
2023/06/10 15:11:58;;;;;;;6.43;3.80;;;;;;;31.02;40.83;100258.66;8317792;28;20049;-63
2023/06/10 15:15:58;;;;;;;4.78;3.90;;;;;;;31.22;39.08;100252.22;8318877;28;20461;-63
2023/06/10 15:19:59;;;;;;;7.82;4.25;;;;;;;31.24;39.70;100249.97;8335122;28;20292;-62
2023/06/10 15:23:59;;;;;;;8.38;4.88;;;;;;;31.04;41.94;100255.59;8317614;28;20049;-63
2023/06/10 15:28:00;;;;;;;5.70;4.70;;;;;;;31.06;42.27;100239.38;8315667;28;20037;-63
2023/06/10 15:32:00;;;;;;;7.27;4.23;;;;;;;31.05;42.62;100240.50;8319410;28;20525;-64
2023/06/10 15:36:01;;;;;;;7.75;4.63;;;;;;;31.27;41.62;100238.22;8318741;28;20362;-60
2023/06/10 15:40:01;;;;;;;7.68;4.45;;;;;;;31.14;41.16;100244.41;8324124;28;20130;-60
2023/06/10 15:44:02;;;;;;;5.30;4.70;;;;;;;31.07;42.32;100239.09;8317544;28;20443;-57
2023/06/10 15:48:03;;;;;;;9.02;4.72;;;;;;;31.05;41.53;100241.34;8301058;28;20030;-58
2023/06/10 15:52:04;;;;;;;7.82;4.22;;;;;;;30.92;40.85;100236.31;8317943;28;20034;-60
2023/06/10 15:56:04;;;;;;;8.27;4.72;;;;;;;30.93;42.41;100237.16;8317609;28;20184;-60
2023/06/10 16:00:06;;;;;;;5.72;4.38;;;;;;;31.03;42.44;100234.34;8316989;28;20037;-61
2023/06/10 16:04:09;;;;;;;5.22;4.40;;;;;;;31.05;41.26;100232.13;8318175;28;20041;-61
2023/06/10 16:08:10;;;;;;;4.40;4.00;;;;;;;31.04;39.23;100233.25;8317769;28;20041;-61
2023/06/10 16:12:10;;;;;;;3.77;3.40;;;;;;;31.01;39.10;100231.03;8316898;28;20246;-60
2023/06/10 16:16:11;;;;;;;5.00;4.10;;;;;;;30.97;39.10;100227.09;8315144;28;20296;-60
2023/06/10 16:20:12;;;;;;;4.78;4.18;;;;;;;30.88;41.49;100228.78;8314995;28;20408;-60
2023/06/10 16:24:12;;;;;;;15.63;7.57;;;;;;;30.88;40.27;100217.59;8315615;28;20065;-60
2023/06/10 16:28:13;;;;;;;34.08;21.77;;;;;;;30.98;41.79;100215.63;8316273;28;20034;-61
2023/06/10 16:32:13;;;;;;;7.32;5.20;;;;;;;31.03;39.33;100215.66;8319560;28;20041;-61
2023/06/10 16:36:14;;;;;;;6.70;4.05;;;;;;;30.96;41.06;100219.84;8318624;28;20084;-61
2023/06/10 16:40:14;;;;;;;5.45;4.18;;;;;;;30.99;41.38;100210.91;8319202;28;20098;-61
2023/06/10 16:44:16;;;;;;;5.40;4.90;;;;;;;31.10;40.86;100218.16;8339235;28;20041;-61
2023/06/10 16:48:17;;;;;;;4.90;4.50;;;;;;;31.12;42.60;100218.69;8302878;28;20045;-62
2023/06/10 16:52:17;;;;;;;10.70;5.30;;;;;;;31.07;42.18;100213.13;8303907;28;20094;-62
2023/06/10 16:56:18;;;;;;;6.80;4.40;;;;;;;30.83;41.72;100220.41;8322312;28;20573;-61
2023/06/10 17:00:19;;;;;;;6.18;5.57;;;;;;;30.72;43.75;100218.69;8319225;28;20056;-60
2023/06/10 17:04:19;;;;;;;15.60;9.68;;;;;;;30.66;42.45;100225.41;8296240;28;20042;-61
2023/06/10 17:08:20;;;;;;;21.13;11.52;;;;;;;30.36;43.52;100227.06;8288929;28;20053;-61
2023/06/10 17:12:20;;;;;;;5.90;4.40;;;;;;;30.26;42.60;100221.47;8315586;28;20459;-61
2023/06/10 17:16:21;;;;;;;6.88;5.60;;;;;;;30.24;43.91;100220.91;8313902;28;20040;-61
2023/06/10 17:20:22;;;;;;;7.47;5.30;;;;;;;30.25;43.15;100233.72;8324209;28;20045;-61
2023/06/10 17:24:22;;;;;;;6.82;4.40;;;;;;;30.35;41.59;100235.72;8323486;28;20072;-61
2023/06/10 17:28:22;;;;;;;4.88;4.05;;;;;;;30.21;42.62;100235.41;8324564;28;20107;-61
2023/06/10 17:32:23;;;;;;;5.50;4.80;;;;;;;30.17;42.35;100230.63;8316653;28;20037;-61
2023/06/10 17:36:23;;;;;;;6.85;4.78;;;;;;;30.21;42.23;100238.19;8305366;28;21597;-61
2023/06/10 17:40:24;;;;;;;6.45;5.85;;;;;;;30.23;42.35;100229.53;8305599;28;20056;-63
2023/06/10 17:44:24;;;;;;;5.97;4.82;;;;;;;30.32;42.13;100233.47;8352737;28;20423;-62
2023/06/10 17:48:25;;;;;;;7.60;4.38;;;;;;;30.14;42.94;100234.81;8355859;28;20052;-63
2023/06/10 17:52:25;;;;;;;9.10;6.85;;;;;;;30.05;43.44;100242.03;8328240;28;20431;-61
2023/06/10 17:56:26;;;;;;;6.78;5.90;;;;;;;30.08;44.22;100244.28;8323344;28;20033;-61
2023/06/10 18:00:27;;;;;;;5.50;4.38;;;;;;;30.02;43.77;100241.72;8319593;28;20049;-61
2023/06/10 18:04:27;;;;;;;4.78;4.07;;;;;;;29.81;45.22;100246.41;8320809;28;20053;-61
2023/06/10 18:08:28;;;;;;;5.68;4.50;;;;;;;29.71;44.45;100246.38;8286432;28;20057;-62
2023/06/10 18:12:29;;;;;;;5.07;4.57;;;;;;;29.72;44.39;100242.47;8320773;28;20407;-62
2023/06/10 18:16:30;;;;;;;7.47;3.80;;;;;;;29.59;45.28;100248.50;8320448;28;20233;-62
2023/06/10 18:20:30;;;;;;;6.60;4.45;;;;;;;29.34;45.26;100251.16;8321191;28;20041;-62
2023/06/10 18:24:31;;;;;;;7.75;3.92;;;;;;;29.15;44.77;100252.69;8321410;28;20245;-62
2023/06/10 18:28:32;;;;;;;5.55;3.88;;;;;;;29.14;45.00;100251.00;8319857;28;20037;-62
2023/06/10 18:32:32;;;;;;;6.85;4.30;;;;;;;29.19;44.78;100248.28;8319164;28;20055;-62